Bert Mooney Airport
KBTM : now visible

Airfield :











YOU CAN JOIN US ON...

 
LOGIN :

Register | Disclaimer

   EN    FR    IT 

 









Legend :    VFR   Marginal VFR   IFR   Intensive IFR   Very Intensive IFR
Visi :
Ceiling :
>= 8 km
>= 3000ft
5 to 8 km
1000 to 3000 ft
1500m to 5 km
500 to 1000 ft
800 to 1500m
200 to 500 ft
< 800m
< 200 ft
Symbols :   Thunderstorms  Fog  Heavy snow  Heavy precipitations  Wind > 20 kt






- Airport Elevation : 5550 ft
- IATA code : BTM


KBTM - Bert Mooney

CURRENT METAR :
  • 070553Z AUTO 00000KT 10SM CLR 14/08 A2998 RMK AO2 SLP099 T01440083 10272 20144 58006

EXPIRED METARs :
  • 070453Z AUTO 00000KT 10SM CLR 18/08 A2999 RMK AO2 SLP098 T01830078
  • 070353Z AUTO VRB04KT 10SM CLR 21/07 A3000 RMK AO2 SLP099 T02060072

TAF KBTM
Valid from the 07 at 06:00 until the 08 at 06:00 UTC


070553Z 0706/0806 15006KT P6SM SCT150
FM071800 31012G20KT P6SM -SHRA BKN080
FM080200 31010KT P6SM BKN080
KZLC FIR / North America



MET'MAP, your aeronautical weather chart ! - Copyright ORBIFLY December 2007 - Disclaimer

ORBIFLY MET'MAP TEAM :

Programming & Development : Alexandra Zaïnal
Concept & original design : Baudouin d'Aumeries
Assistance for programming : Marc-Olivier Méhu
Technical & hardware support : Manuel Goepfert

Contact : metmap@orbifly.com




SOURCES & CREDITS :

   NOAA       Earth
Advisory